Time;durP1;ratioP1;P1;durP2;ratioP2;P2;SDS_P1;SDS_P2;PMS_P1;PMS_P2;Temp;Humidity;BMP_temperature;BMP_pressure;BME280_temperature;BME280_humidity;BME280_pressure;Samples;Min_cycle;Max_cycle;Signal;HPM_P1;HPM_P2
2020/12/25 00:00:52;;;;;;;0.40;0.30;;;;;;;2.95;85.05;98409.82;1701319;82;21643;-54
2020/12/25 00:03:21;;;;;;;0.50;0.30;;;;;;;2.96;85.05;98405.38;1698375;82;21276;-61
2020/12/25 00:05:49;;;;;;;0.80;0.30;;;;;;;2.95;85.06;98408.48;1698840;82;21461;-61
2020/12/25 00:08:20;;;;;;;0.30;0.17;;;;;;;2.95;85.09;98407.16;1702118;82;22201;-61
2020/12/25 00:10:47;;;;;;;0.50;0.20;;;;;;;2.95;85.15;98419.12;1701953;82;21510;-61
2020/12/25 00:13:14;;;;;;;0.67;0.30;;;;;;;2.96;85.17;98430.63;1702859;83;21168;-55
2020/12/25 00:15:44;;;;;;;0.20;0.10;;;;;;;2.99;85.18;98430.48;1700193;82;21198;-59
2020/12/25 00:18:12;;;;;;;0.23;0.20;;;;;;;2.99;85.20;98427.83;1680455;83;21546;-57
2020/12/25 00:20:41;;;;;;;0.37;0.23;;;;;;;2.98;85.21;98429.61;1699417;82;21186;-58
2020/12/25 00:23:08;;;;;;;0.30;0.20;;;;;;;2.97;85.27;98429.70;1702280;82;22087;-59
2020/12/25 00:25:37;;;;;;;0.30;0.20;;;;;;;2.98;85.26;98444.23;1698732;82;21214;-62
2020/12/25 00:28:04;;;;;;;0.20;0.10;;;;;;;3.01;85.27;98444.13;1657689;83;21621;-59
2020/12/25 00:30:32;;;;;;;0.10;0.10;;;;;;;3.02;85.27;98443.67;1667709;84;21086;-59
2020/12/25 00:32:59;;;;;;;0.20;0.20;;;;;;;3.04;85.29;98440.03;1711061;82;21900;-58
2020/12/25 00:35:27;;;;;;;0.33;0.20;;;;;;;3.06;85.30;98445.30;1705313;82;21155;-59
2020/12/25 00:37:54;;;;;;;0.20;0.20;;;;;;;3.09;85.32;98439.84;1704043;82;21205;-56
2020/12/25 00:40:22;;;;;;;0.30;0.30;;;;;;;3.11;85.28;98435.80;1703510;82;21238;-56
2020/12/25 00:42:50;;;;;;;0.30;0.20;;;;;;;3.11;85.27;98434.01;1648796;85;21709;-59
2020/12/25 00:45:18;;;;;;;0.20;0.20;;;;;;;3.11;85.28;98427.36;1706990;82;21416;-64
2020/12/25 00:47:46;;;;;;;0.40;0.30;;;;;;;3.12;85.25;98427.77;1701614;82;22324;-57
2020/12/25 00:50:13;;;;;;;0.30;0.20;;;;;;;3.13;85.23;98414.88;1702301;82;21184;-57
2020/12/25 00:52:40;;;;;;;0.27;0.20;;;;;;;3.15;85.23;98421.47;1704843;82;21214;-57
2020/12/25 00:55:10;;;;;;;0.40;0.27;;;;;;;3.15;85.22;98419.65;1703510;82;21223;-55
2020/12/25 00:57:38;;;;;;;0.33;0.30;;;;;;;3.17;85.24;98412.95;1703314;82;21480;-57
2020/12/25 01:00:15;;;;;;;0.50;0.30;;;;;;;3.21;85.22;98400.81;1766181;77;29426;-56
2020/12/25 01:02:42;;;;;;;0.43;0.30;;;;;;;3.22;85.20;98396.37;1753177;79;21072;-61
2020/12/25 01:05:10;;;;;;;0.37;0.30;;;;;;;3.27;85.12;98391.72;1756130;79;22321;-59
2020/12/25 01:07:37;;;;;;;0.40;0.30;;;;;;;3.28;85.06;98392.98;1745482;79;21187;-58
2020/12/25 01:10:06;;;;;;;0.33;0.30;;;;;;;3.28;85.03;98386.34;1740703;80;21526;-61
2020/12/25 01:12:33;;;;;;;0.50;0.30;;;;;;;3.29;84.96;98385.87;1736799;80;21202;-56
2020/12/25 01:15:01;;;;;;;0.50;0.33;;;;;;;3.28;85.01;98376.16;1735552;80;21068;-60
2020/12/25 01:17:28;;;;;;;0.80;0.63;;;;;;;3.29;85.02;98388.08;1734680;80;21371;-57
2020/12/25 01:19:55;;;;;;;0.60;0.50;;;;;;;3.30;85.01;98383.63;1728561;80;21481;-59
2020/12/25 01:22:22;;;;;;;0.90;0.50;;;;;;;3.31;84.98;98376.05;1704035;80;21226;-58
2020/12/25 01:24:50;;;;;;;0.60;0.50;;;;;;;3.30;84.96;98365.88;1727283;80;21204;-62
2020/12/25 01:27:17;;;;;;;0.60;0.50;;;;;;;3.29;85.00;98369.92;1733374;80;21565;-61
2020/12/25 01:29:44;;;;;;;1.17;0.60;;;;;;;3.27;84.99;98375.30;1697759;82;21235;-58
2020/12/25 01:32:11;;;;;;;0.93;0.60;;;;;;;3.27;84.96;98390.38;1681648;83;21606;-60
2020/12/25 01:34:38;;;;;;;0.97;0.60;;;;;;;3.28;84.99;98377.50;1677526;83;21234;-57
2020/12/25 01:37:06;;;;;;;0.90;0.67;;;;;;;3.27;85.04;98385.06;1685211;82;21166;-61
2020/12/25 01:39:33;;;;;;;0.80;0.63;;;;;;;3.29;85.08;98385.87;1686101;82;21442;-58
2020/12/25 01:42:00;;;;;;;0.83;0.60;;;;;;;3.27;85.11;98387.27;1690767;82;21284;-58
2020/12/25 01:44:27;;;;;;;1.23;0.73;;;;;;;3.29;85.16;98384.55;1682695;82;21289;-61
2020/12/25 01:46:55;;;;;;;0.80;0.60;;;;;;;3.31;85.19;98385.36;1686508;82;21238;-60
2020/12/25 01:49:22;;;;;;;1.40;0.87;;;;;;;3.31;85.23;98378.71;1681575;82;21646;-59
2020/12/25 01:51:49;;;;;;;1.63;0.77;;;;;;;3.32;85.29;98385.73;1681988;82;21191;-61
2020/12/25 01:54:16;;;;;;;2.33;1.00;;;;;;;3.32;85.28;98377.29;1653000;82;21720;-60
2020/12/25 01:56:45;;;;;;;1.37;0.90;;;;;;;3.33;85.34;98392.78;1684164;82;21178;-62
2020/12/25 01:59:12;;;;;;;1.67;0.90;;;;;;;3.33;85.42;98384.81;1679970;82;21187;-59
2020/12/25 02:01:40;;;;;;;1.30;0.80;;;;;;;3.34;85.51;98390.07;1684528;83;21743;-64
2020/12/25 02:04:08;;;;;;;1.10;0.70;;;;;;;3.37;85.58;98394.41;1676737;83;21195;-58
2020/12/25 02:06:39;;;;;;;2.30;1.30;;;;;;;3.39;85.66;98385.45;1681733;83;21445;-61
2020/12/25 02:09:08;;;;;;;2.57;1.30;;;;;;;3.43;85.73;98375.53;1673320;83;21267;-62
2020/12/25 02:11:36;;;;;;;1.23;0.90;;;;;;;3.46;85.77;98378.07;1680671;83;21214;-60
2020/12/25 02:14:04;;;;;;;1.87;1.10;;;;;;;3.50;85.83;98382.32;1691927;82;21784;-65
2020/12/25 02:16:31;;;;;;;4.30;1.93;;;;;;;3.52;85.90;98382.27;1681742;83;21210;-58
2020/12/25 02:18:58;;;;;;;4.70;1.83;;;;;;;3.53;85.97;98380.01;1676221;83;22122;-60
2020/12/25 02:21:26;;;;;;;2.23;1.33;;;;;;;3.54;85.97;98382.61;1671431;83;21198;-62
2020/12/25 02:23:53;;;;;;;2.57;1.57;;;;;;;3.56;86.01;98376.77;1676248;83;21201;-61
2020/12/25 02:26:21;;;;;;;3.53;1.50;;;;;;;3.59;86.07;98359.78;1681620;83;21234;-59
2020/12/25 02:28:49;;;;;;;2.47;1.40;;;;;;;3.61;86.13;98368.11;1672523;83;21234;-64
2020/12/25 02:31:16;;;;;;;2.43;1.33;;;;;;;3.65;86.19;98368.40;1682941;83;21226;-59
2020/12/25 02:33:43;;;;;;;4.03;1.60;;;;;;;3.68;86.20;98365.59;1673537;83;21277;-60
2020/12/25 02:36:11;;;;;;;2.20;1.40;;;;;;;3.72;86.24;98373.86;1683517;82;21162;-65
2020/12/25 02:38:39;;;;;;;1.97;1.43;;;;;;;3.77;86.24;98372.31;1688786;82;21585;-60
2020/12/25 02:41:07;;;;;;;4.13;2.03;;;;;;;3.77;86.24;98363.87;1679459;83;21988;-62
2020/12/25 02:43:36;;;;;;;3.13;2.50;;;;;;;3.79;86.32;98367.34;1673767;83;21210;-59
2020/12/25 02:46:05;;;;;;;4.23;3.07;;;;;;;3.78;86.30;98358.95;1683787;83;21894;-64
2020/12/25 02:48:32;;;;;;;3.97;3.00;;;;;;;3.82;86.29;98365.48;1673840;83;21207;-63
2020/12/25 02:50:59;;;;;;;5.27;3.10;;;;;;;3.84;86.29;98367.12;1681605;82;21190;-60
2020/12/25 02:53:27;;;;;;;6.07;3.10;;;;;;;3.86;86.32;98363.94;1666648;83;21215;-63
2020/12/25 02:55:54;;;;;;;7.50;4.37;;;;;;;3.89;86.33;98366.94;1673991;83;21203;-63
2020/12/25 02:58:21;;;;;;;7.67;4.60;;;;;;;3.90;86.36;98362.02;1682725;82;21190;-64
2020/12/25 03:00:48;;;;;;;7.00;4.83;;;;;;;3.93;86.40;98364.53;1733120;80;21649;-64
2020/12/25 03:03:16;;;;;;;10.63;7.27;;;;;;;3.97;86.42;98364.81;1738084;80;21270;-63
2020/12/25 03:05:43;;;;;;;11.83;5.63;;;;;;;3.98;86.42;98361.22;1736293;80;21834;-62
2020/12/25 03:08:10;;;;;;;10.93;6.03;;;;;;;3.98;86.38;98374.06;1734887;79;21681;-64
2020/12/25 03:10:37;;;;;;;7.97;5.73;;;;;;;3.99;86.35;98382.45;1739322;80;22488;-63
2020/12/25 03:13:04;;;;;;;8.43;4.53;;;;;;;4.00;86.37;98388.16;1738072;80;21205;-63
2020/12/25 03:15:32;;;;;;;9.77;5.23;;;;;;;4.03;86.40;98388.50;1737150;80;21107;-62
2020/12/25 03:17:59;;;;;;;12.20;5.80;;;;;;;4.03;86.42;98385.37;1737679;80;21509;-61
2020/12/25 03:20:26;;;;;;;9.97;6.00;;;;;;;4.06;86.47;98386.58;1737872;80;22011;-62
2020/12/25 03:22:54;;;;;;;9.73;6.20;;;;;;;4.10;86.50;98385.95;1734167;80;21251;-62
2020/12/25 03:25:21;;;;;;;16.00;8.33;;;;;;;4.12;86.48;98389.43;1734075;80;21191;-61
2020/12/25 03:27:48;;;;;;;13.83;8.10;;;;;;;4.13;86.48;98393.36;1734954;80;21241;-60
2020/12/25 03:30:15;;;;;;;9.97;6.60;;;;;;;4.14;86.51;98397.76;1735095;80;21182;-61
2020/12/25 03:32:42;;;;;;;16.10;8.40;;;;;;;4.17;86.51;98414.91;1740378;80;22264;-60
2020/12/25 03:35:09;;;;;;;13.80;7.80;;;;;;;4.19;86.49;98405.53;1738517;80;21179;-59
2020/12/25 03:37:36;;;;;;;16.30;8.13;;;;;;;4.20;86.51;98396.61;1746515;80;21192;-62
2020/12/25 03:40:04;;;;;;;18.20;8.97;;;;;;;4.23;86.54;98398.28;1683046;83;21136;-60
2020/12/25 03:42:31;;;;;;;17.23;7.83;;;;;;;4.27;86.57;98396.73;1675277;83;21235;-61
2020/12/25 03:44:58;;;;;;;19.57;8.13;;;;;;;4.31;86.62;98397.02;1697299;82;23533;-61
2020/12/25 03:47:26;;;;;;;19.37;9.23;;;;;;;4.34;86.57;98394.19;1678277;84;21556;-63
2020/12/25 03:49:53;;;;;;;18.50;10.07;;;;;;;4.38;86.58;98388.27;1688844;82;21628;-61
2020/12/25 03:54:14;;;;;;;17.00;9.30;;;;;;;4.45;86.65;98379.06;1865384;75;27448;-62
2020/12/25 03:56:41;;;;;;;16.60;9.13;;;;;;;4.42;86.58;98392.55;1839804;76;21637;-63
2020/12/25 03:59:09;;;;;;;14.27;8.70;;;;;;;4.45;86.56;98387.06;1840443;76;21203;-63
2020/12/25 04:01:36;;;;;;;14.03;7.97;;;;;;;4.46;86.59;98390.98;1838740;76;21427;-63
2020/12/25 04:04:03;;;;;;;17.00;10.00;;;;;;;4.49;86.63;98388.66;1842374;76;21128;-63
2020/12/25 04:06:32;;;;;;;17.83;10.20;;;;;;;4.52;86.66;98384.50;1685354;83;66928;-62
2020/12/25 04:09:00;;;;;;;15.67;9.03;;;;;;;4.54;86.64;98386.17;1704862;82;21205;-62
2020/12/25 04:11:27;;;;;;;18.30;11.53;;;;;;;4.61;86.63;98387.22;1647712;85;21561;-61
2020/12/25 04:13:54;;;;;;;17.83;10.20;;;;;;;4.64;86.59;98391.09;1703071;82;21476;-60
2020/12/25 04:16:21;;;;;;;18.17;10.97;;;;;;;4.65;86.54;98400.81;1701220;82;21217;-59
2020/12/25 04:18:49;;;;;;;18.93;11.10;;;;;;;4.67;86.53;98394.49;1704488;82;21212;-61
2020/12/25 04:21:18;;;;;;;21.73;12.27;;;;;;;4.68;86.44;98394.86;1702484;82;21428;-62
2020/12/25 04:23:46;;;;;;;19.97;10.37;;;;;;;4.73;86.40;98389.34;1700451;82;22082;-61
2020/12/25 04:26:13;;;;;;;24.57;11.77;;;;;;;4.74;86.37;98373.28;1701990;82;21149;-62
2020/12/25 04:28:40;;;;;;;18.47;11.77;;;;;;;4.77;86.36;98385.11;1675678;83;21233;-61
2020/12/25 04:31:08;;;;;;;20.70;11.87;;;;;;;4.79;86.34;98391.24;1704449;82;21209;-61
2020/12/25 04:33:35;;;;;;;23.43;13.37;;;;;;;4.81;86.27;98396.04;1664574;84;21242;-62
2020/12/25 04:36:03;;;;;;;24.73;13.87;;;;;;;4.81;86.26;98396.04;1703308;82;21414;-62
2020/12/25 04:38:31;;;;;;;22.57;12.67;;;;;;;4.83;86.22;98390.64;1699596;82;21121;-61
2020/12/25 04:40:59;;;;;;;23.30;13.17;;;;;;;4.83;86.12;98385.31;1703865;82;21129;-61
2020/12/25 04:43:26;;;;;;;22.37;12.17;;;;;;;4.84;86.07;98382.58;1697463;82;21207;-61
2020/12/25 04:45:54;;;;;;;21.77;12.40;;;;;;;4.86;86.06;98388.68;1698521;82;21261;-60
2020/12/25 04:48:21;;;;;;;22.80;12.50;;;;;;;4.87;86.04;98390.88;1704476;82;21186;-61
2020/12/25 04:50:48;;;;;;;18.67;11.73;;;;;;;4.88;86.00;98400.14;1702264;82;20971;-62
2020/12/25 04:53:15;;;;;;;22.27;12.70;;;;;;;4.88;85.97;98412.61;1701883;82;21189;-62
2020/12/25 04:55:43;;;;;;;22.07;12.47;;;;;;;4.87;85.92;98412.21;1705090;82;21197;-62
2020/12/25 04:58:10;;;;;;;18.33;11.17;;;;;;;4.86;85.88;98396.67;1702577;82;21213;-61
2020/12/25 05:00:37;;;;;;;22.60;12.07;;;;;;;4.86;85.80;98402.02;1703455;82;21629;-62
2020/12/25 05:03:06;;;;;;;23.33;13.90;;;;;;;4.88;85.78;98410.81;1698611;82;21674;-61
2020/12/25 05:05:33;;;;;;;22.53;13.13;;;;;;;4.88;85.73;98412.61;1702038;82;21198;-61
2020/12/25 05:08:00;;;;;;;22.53;13.20;;;;;;;4.89;85.73;98425.01;1712751;82;21589;-61
2020/12/25 05:10:28;;;;;;;25.43;13.73;;;;;;;4.88;85.70;98436.14;1710866;82;21246;-62
2020/12/25 05:12:55;;;;;;;23.77;13.77;;;;;;;4.88;85.67;98434.81;1713628;82;21650;-62
2020/12/25 05:15:22;;;;;;;22.83;14.00;;;;;;;4.87;85.69;98428.20;1710290;82;21218;-61
2020/12/25 05:17:56;;;;;;;23.93;14.73;;;;;;;4.86;85.68;98411.34;1710747;82;21163;-62
2020/12/25 05:20:24;;;;;;;21.82;13.90;;;;;;;4.86;85.64;98412.67;1715948;82;21579;-62
2020/12/25 05:22:53;;;;;;;22.83;13.63;;;;;;;4.87;85.58;98432.20;1681373;82;21202;-60
2020/12/25 05:25:21;;;;;;;21.23;12.60;;;;;;;4.87;85.57;98445.53;1703362;82;21242;-61
2020/12/25 05:27:48;;;;;;;21.53;12.23;;;;;;;4.87;85.62;98445.53;1711346;82;21151;-61
2020/12/25 05:30:15;;;;;;;18.40;12.23;;;;;;;4.88;85.63;98449.47;1710846;82;21248;-61
2020/12/25 05:32:43;;;;;;;17.77;12.73;;;;;;;4.89;85.60;98454.34;1684882;82;21549;-61
2020/12/25 05:35:12;;;;;;;19.83;13.13;;;;;;;4.90;85.60;98449.41;1715949;82;21187;-61
2020/12/25 05:37:40;;;;;;;22.03;13.57;;;;;;;4.90;85.60;98435.61;1690467;82;21226;-61
2020/12/25 05:40:08;;;;;;;23.80;14.80;;;;;;;4.90;85.56;98444.94;1714709;82;21636;-62
2020/12/25 05:42:48;;;;;;;28.47;16.20;;;;;;;4.92;85.47;98447.55;1710069;82;21243;-62
2020/12/25 05:45:20;;;;;;;26.57;16.37;;;;;;;4.92;85.40;98460.87;1710919;82;21234;-61
2020/12/25 05:48:03;;;;;;;27.53;18.50;;;;;;;4.91;85.37;98457.34;1716411;82;21132;-62
2020/12/25 05:50:31;;;;;;;27.60;16.50;;;;;;;4.92;85.36;98459.55;1715923;82;21209;-61
2020/12/25 05:52:58;;;;;;;27.00;17.77;;;;;;;4.91;85.31;98467.14;1712421;82;21218;-61
2020/12/25 05:55:26;;;;;;;25.43;16.00;;;;;;;4.90;85.27;98470.73;1710327;82;21205;-61
2020/12/25 05:57:54;;;;;;;29.43;16.70;;;;;;;4.90;85.29;98481.41;1713257;82;21796;-62
2020/12/25 06:00:23;;;;;;;28.83;19.47;;;;;;;4.88;85.25;98478.80;1714126;81;21199;-61
2020/12/25 06:02:53;;;;;;;26.73;16.67;;;;;;;4.87;85.26;98482.86;1710809;82;21203;-61
2020/12/25 06:05:24;;;;;;;26.27;14.50;;;;;;;4.86;85.26;98477.13;1715443;82;21309;-62
2020/12/25 06:07:56;;;;;;;26.50;14.83;;;;;;;4.87;85.21;98475.73;1713486;82;21027;-61
2020/12/25 06:10:27;;;;;;;25.40;14.23;;;;;;;4.87;85.16;98471.73;1712068;82;21247;-61
2020/12/25 06:12:57;;;;;;;25.50;14.40;;;;;;;4.87;85.18;98477.06;1713338;82;22252;-61
2020/12/25 06:15:31;;;;;;;22.13;14.13;;;;;;;4.89;85.12;98480.53;1714607;82;22184;-62
2020/12/25 06:18:35;;;;;;;25.02;15.03;;;;;;;4.90;85.07;98482.73;1716425;82;21187;-61
2020/12/25 06:21:30;;;;;;;28.57;18.27;;;;;;;4.90;85.03;98486.27;1715596;82;21182;-62
2020/12/25 06:23:58;;;;;;;34.53;23.37;;;;;;;4.89;84.97;98499.67;1711784;82;21206;-62
2020/12/25 06:26:25;;;;;;;32.53;23.33;;;;;;;4.85;84.96;98498.05;1673996;83;21459;-61
2020/12/25 06:28:52;;;;;;;34.67;23.60;;;;;;;4.85;84.95;98506.05;1715496;82;21278;-63
2020/12/25 06:31:41;;;;;;;28.67;20.53;;;;;;;4.85;84.92;98499.39;1710235;82;21239;-61
2020/12/25 06:34:08;;;;;;;27.53;16.93;;;;;;;4.83;84.87;98512.81;1711610;82;21186;-62
2020/12/25 06:36:36;;;;;;;20.70;13.77;;;;;;;4.83;84.88;98515.48;1710467;82;21195;-62
2020/12/25 06:39:05;;;;;;;19.20;12.30;;;;;;;4.83;84.92;98515.48;1705701;82;21752;-62
2020/12/25 06:41:36;;;;;;;17.33;12.53;;;;;;;4.85;84.90;98520.25;1685045;82;21242;-62
2020/12/25 06:44:09;;;;;;;22.00;14.77;;;;;;;4.85;84.92;98519.39;1713354;82;21196;-61
2020/12/25 06:46:36;;;;;;;24.43;15.53;;;;;;;4.85;84.87;98523.39;1710436;82;21140;-62
2020/12/25 06:49:05;;;;;;;21.93;13.67;;;;;;;4.83;84.85;98529.28;1710735;82;21684;-61
2020/12/25 06:51:44;;;;;;;22.47;12.80;;;;;;;4.83;84.87;98525.28;1711854;82;21494;-61
2020/12/25 06:54:21;;;;;;;20.33;12.40;;;;;;;4.85;84.88;98527.39;1708640;82;23489;-61
2020/12/25 06:56:55;;;;;;;16.67;11.13;;;;;;;4.86;84.91;98520.66;1713388;82;21466;-62
2020/12/25 06:59:23;;;;;;;17.53;10.87;;;;;;;4.88;84.90;98528.59;1715170;82;21811;-61
2020/12/25 07:01:54;;;;;;;19.80;13.57;;;;;;;4.90;84.93;98534.27;1713055;82;21226;-62
2020/12/25 07:04:26;;;;;;;19.60;11.80;;;;;;;4.93;84.96;98542.61;1716957;82;21214;-61
2020/12/25 07:07:02;;;;;;;21.47;12.53;;;;;;;4.94;84.96;98541.64;1710189;82;21390;-62
2020/12/25 07:09:45;;;;;;;18.47;12.97;;;;;;;4.95;84.90;98552.25;1711551;82;21219;-62
2020/12/25 07:12:18;;;;;;;24.07;13.03;;;;;;;4.96;84.91;98543.78;1710445;82;21140;-62
2020/12/25 07:14:46;;;;;;;20.77;12.57;;;;;;;4.98;84.81;98553.92;1713412;82;21111;-63
2020/12/25 07:17:13;;;;;;;18.13;11.70;;;;;;;5.00;84.82;98552.06;1710289;82;21179;-62
2020/12/25 07:19:43;;;;;;;19.40;11.30;;;;;;;5.01;84.84;98544.46;1711107;82;22275;-62
2020/12/25 07:22:10;;;;;;;18.83;12.27;;;;;;;5.04;84.83;98546.97;1711677;82;21229;-62
2020/12/25 07:24:41;;;;;;;19.93;12.47;;;;;;;5.05;84.81;98560.70;1710058;82;21211;-63
2020/12/25 07:27:09;;;;;;;18.60;13.07;;;;;;;5.08;84.79;98553.91;1708559;82;21961;-61
2020/12/25 07:29:37;;;;;;;15.23;10.40;;;;;;;5.08;84.74;98555.25;1714236;82;21124;-62
2020/12/25 07:32:05;;;;;;;21.00;13.47;;;;;;;5.08;84.73;98560.58;1712041;82;22662;-62
2020/12/25 07:34:32;;;;;;;21.93;13.10;;;;;;;5.08;84.72;98571.72;1713239;82;21207;-62
2020/12/25 07:36:59;;;;;;;17.73;11.40;;;;;;;5.06;84.68;98571.78;1706822;82;21190;-62
2020/12/25 07:39:28;;;;;;;18.37;11.93;;;;;;;5.09;84.64;98576.98;1709963;82;21655;-62
2020/12/25 07:41:56;;;;;;;15.57;11.07;;;;;;;5.09;84.65;98572.98;1713583;82;21179;-61
2020/12/25 07:44:23;;;;;;;15.43;10.60;;;;;;;5.12;84.69;98578.63;1712396;82;21131;-62
2020/12/25 07:46:51;;;;;;;13.33;10.50;;;;;;;5.14;84.69;98588.30;1711761;82;21194;-62
2020/12/25 07:49:19;;;;;;;14.87;10.33;;;;;;;5.15;84.67;98588.70;1714015;82;21238;-61
2020/12/25 07:51:49;;;;;;;19.43;13.13;;;;;;;5.17;84.64;98588.17;1712790;82;21202;-62
2020/12/25 07:54:17;;;;;;;17.57;12.53;;;;;;;5.17;84.62;98597.52;1708941;82;21462;-62
2020/12/25 07:56:45;;;;;;;15.37;10.23;;;;;;;5.17;84.57;98597.52;1717950;82;21207;-62
2020/12/25 07:59:12;;;;;;;15.70;10.37;;;;;;;5.18;84.50;98596.58;1717224;82;21139;-61
2020/12/25 08:01:39;;;;;;;15.10;9.80;;;;;;;5.19;84.48;98604.13;1713592;82;21215;-62
2020/12/25 08:04:07;;;;;;;12.60;9.17;;;;;;;5.19;84.49;98602.79;1710901;82;21585;-61
2020/12/25 08:06:36;;;;;;;12.53;10.00;;;;;;;5.20;84.49;98603.16;1679870;83;21226;-62
2020/12/25 08:11:43;;;;;;;12.80;9.67;;;;;;;5.28;84.48;98609.02;1868050;75;22669;-61
2020/12/25 08:14:14;;;;;;;12.43;10.23;;;;;;;5.24;84.45;98603.44;1842481;76;22639;-61
2020/12/25 08:16:45;;;;;;;18.30;9.87;;;;;;;5.24;84.39;98606.10;1813706;77;22272;-61
2020/12/25 08:19:13;;;;;;;9.90;8.10;;;;;;;5.22;84.42;98609.30;1786526;76;21195;-62
2020/12/25 08:21:40;;;;;;;13.83;9.67;;;;;;;5.22;84.37;98611.50;1846423;76;21174;-63
2020/12/25 08:24:09;;;;;;;11.20;8.07;;;;;;;5.24;84.34;98609.64;1846587;76;21533;-61
2020/12/25 08:26:40;;;;;;;8.57;6.90;;;;;;;5.25;84.31;98619.84;1845394;76;20984;-60
2020/12/25 08:29:08;;;;;;;9.73;7.17;;;;;;;5.25;84.32;98622.52;1843907;76;22096;-60
2020/12/25 08:31:37;;;;;;;9.20;6.40;;;;;;;5.28;84.32;98627.69;1842126;76;21044;-60
2020/12/25 08:34:08;;;;;;;8.00;5.70;;;;;;;5.29;84.34;98632.97;1844258;76;21054;-60
2020/12/25 08:36:37;;;;;;;9.17;7.00;;;;;;;5.32;84.33;98628.84;1811584;76;21197;-62
2020/12/25 08:39:08;;;;;;;10.43;6.77;;;;;;;5.35;84.32;98638.98;1841152;76;21212;-61
2020/12/25 08:41:36;;;;;;;8.70;5.93;;;;;;;5.36;84.24;98640.22;1842707;77;21463;-61
2020/12/25 08:44:13;;;;;;;9.00;5.87;;;;;;;5.37;84.16;98636.63;1845461;76;21193;-61
2020/12/25 08:46:41;;;;;;;8.37;5.63;;;;;;;5.37;84.14;98635.28;1812592;78;21162;-60
2020/12/25 08:49:09;;;;;;;8.93;5.37;;;;;;;5.40;84.18;98642.30;1782544;78;21093;-60
2020/12/25 08:51:38;;;;;;;6.57;4.17;;;;;;;5.43;84.23;98639.50;1809740;78;21194;-60
2020/12/25 08:54:06;;;;;;;6.57;5.00;;;;;;;5.46;84.18;98636.67;1783106;78;22101;-60
2020/12/25 08:56:36;;;;;;;11.67;5.50;;;;;;;5.51;84.17;98638.69;1804207;78;21208;-61
2020/12/25 08:59:08;;;;;;;10.33;6.43;;;;;;;5.55;84.13;98637.13;1813366;78;21629;-59
2020/12/25 09:01:38;;;;;;;10.10;6.60;;;;;;;5.59;84.15;98629.86;1769644;79;21191;-60
2020/12/25 09:04:18;;;;;;;9.07;7.30;;;;;;;5.63;84.08;98628.77;1783357;79;21175;-61
2020/12/25 09:06:50;;;;;;;9.20;6.43;;;;;;;5.64;83.99;98622.03;1772280;79;22171;-59
2020/12/25 09:09:21;;;;;;;9.50;6.63;;;;;;;5.66;83.89;98617.48;1749517;80;21135;-60
2020/12/25 09:11:48;;;;;;;8.97;6.50;;;;;;;5.71;83.83;98624.80;1753302;80;21218;-61
2020/12/25 09:14:17;;;;;;;7.60;5.33;;;;;;;5.74;83.77;98625.61;1753214;80;21168;-60
2020/12/25 09:16:44;;;;;;;6.77;5.23;;;;;;;5.77;83.74;98633.02;1755606;80;21190;-61
2020/12/25 09:19:11;;;;;;;7.87;5.73;;;;;;;5.80;83.70;98628.84;1750880;80;21628;-60
2020/12/25 09:21:38;;;;;;;8.83;6.63;;;;;;;5.84;83.68;98624.25;1750457;80;21239;-61
2020/12/25 09:24:06;;;;;;;9.40;7.57;;;;;;;5.87;83.67;98626.28;1755153;80;21637;-61
2020/12/25 09:26:33;;;;;;;9.87;7.57;;;;;;;5.90;83.58;98626.66;1756685;80;21210;-61
2020/12/25 09:29:00;;;;;;;11.43;6.80;;;;;;;5.91;83.55;98633.27;1754258;80;21234;-62
2020/12/25 09:31:28;;;;;;;10.10;6.33;;;;;;;5.94;83.51;98625.11;1758079;80;21543;-61
2020/12/25 09:33:56;;;;;;;6.63;5.07;;;;;;;5.98;83.38;98634.70;1754649;80;21544;-61
2020/12/25 09:36:23;;;;;;;10.07;7.03;;;;;;;6.00;83.29;98635.50;1753491;80;21175;-62
2020/12/25 09:38:50;;;;;;;7.97;6.03;;;;;;;6.01;83.21;98628.36;1755242;80;21139;-62
2020/12/25 09:41:17;;;;;;;9.03;7.53;;;;;;;6.02;83.13;98622.95;1754760;80;21128;-61
2020/12/25 09:43:45;;;;;;;11.67;7.27;;;;;;;6.01;83.02;98613.20;1755846;80;21223;-61
2020/12/25 09:46:12;;;;;;;12.57;8.50;;;;;;;6.01;82.94;98610.99;1776380;79;21188;-61
2020/12/25 09:48:39;;;;;;;12.23;8.07;;;;;;;5.99;82.85;98607.05;1751881;80;21225;-60
2020/12/25 09:51:07;;;;;;;11.67;6.90;;;;;;;5.99;82.77;98615.06;1755206;80;21494;-61
2020/12/25 09:53:34;;;;;;;10.57;6.37;;;;;;;5.99;82.82;98604.38;1745227;80;21250;-61
2020/12/25 09:56:01;;;;;;;8.23;7.07;;;;;;;6.00;82.82;98600.77;1754620;80;21411;-60
2020/12/25 09:58:29;;;;;;;8.23;6.60;;;;;;;6.02;82.78;98594.90;1753819;80;21160;-60
2020/12/25 10:00:56;;;;;;;10.83;7.23;;;;;;;6.03;82.69;98591.29;1757261;80;21194;-62
2020/12/25 10:03:24;;;;;;;13.07;7.33;;;;;;;6.02;82.69;98592.23;1761557;80;21215;-59
2020/12/25 10:05:51;;;;;;;13.47;7.03;;;;;;;6.01;82.73;98587.82;1763171;80;21171;-61
2020/12/25 10:08:19;;;;;;;14.20;9.20;;;;;;;5.99;82.69;98580.34;1762903;80;21198;-61
2020/12/25 10:10:46;;;;;;;8.63;6.17;;;;;;;5.96;82.66;98576.47;1750933;80;21227;-62
2020/12/25 10:13:13;;;;;;;7.77;6.97;;;;;;;5.98;82.61;98580.41;1734411;81;21183;-61
2020/12/25 10:15:41;;;;;;;8.43;6.03;;;;;;;5.99;82.58;98583.48;1735359;81;21841;-61
2020/12/25 10:18:08;;;;;;;11.40;6.30;;;;;;;6.00;82.56;98582.55;1732300;81;21541;-61
2020/12/25 10:20:36;;;;;;;7.80;6.03;;;;;;;6.05;82.57;98584.51;1734383;81;21227;-61
2020/12/25 10:23:03;;;;;;;10.17;6.63;;;;;;;6.08;82.60;98577.70;1734771;81;21190;-61
2020/12/25 10:25:30;;;;;;;9.73;6.50;;;;;;;6.09;82.59;98578.09;1732952;81;21220;-62
2020/12/25 10:27:58;;;;;;;9.13;6.83;;;;;;;6.13;82.60;98589.48;1731149;81;21224;-61
2020/12/25 10:30:25;;;;;;;8.83;6.40;;;;;;;6.14;82.50;98597.42;1732793;81;21359;-61
2020/12/25 10:32:52;;;;;;;7.67;4.53;;;;;;;6.16;82.49;98596.89;1732418;81;21226;-61
2020/12/25 10:35:21;;;;;;;7.23;4.67;;;;;;;6.22;82.40;98602.39;1733329;81;21612;-61
2020/12/25 10:37:49;;;;;;;6.60;5.17;;;;;;;6.24;82.17;98604.53;1733413;81;21238;-61
2020/12/25 10:40:18;;;;;;;6.90;4.30;;;;;;;6.25;82.10;98608.47;1729470;81;21245;-61
2020/12/25 10:42:47;;;;;;;6.97;4.40;;;;;;;6.27;82.00;98613.74;1733159;81;21211;-62
2020/12/25 10:45:14;;;;;;;6.23;4.27;;;;;;;6.29;81.93;98617.22;1737034;81;21489;-62
2020/12/25 10:47:41;;;;;;;6.27;3.97;;;;;;;6.31;81.85;98616.64;1735401;81;21999;-63
2020/12/25 10:50:09;;;;;;;6.27;2.87;;;;;;;6.32;81.72;98613.90;1732498;81;21248;-63
2020/12/25 10:52:37;;;;;;;5.00;2.70;;;;;;;6.34;81.54;98617.84;1733247;81;21200;-62
2020/12/25 10:55:13;;;;;;;3.10;1.63;;;;;;;6.34;81.48;98615.16;1738380;81;21104;-60
2020/12/25 10:57:40;;;;;;;2.57;1.63;;;;;;;6.37;81.27;98623.91;1704769;81;21419;-61
2020/12/25 11:00:08;;;;;;;2.63;1.90;;;;;;;6.37;81.09;98623.05;1733224;81;21172;-61
2020/12/25 11:02:36;;;;;;;5.13;2.03;;;;;;;6.37;80.91;98617.70;1706548;81;21195;-62
2020/12/25 11:05:04;;;;;;;3.30;2.17;;;;;;;6.41;80.86;98615.25;1737665;81;21502;-61
2020/12/25 11:07:32;;;;;;;2.43;1.97;;;;;;;6.43;80.75;98619.59;1737033;81;21214;-62
2020/12/25 11:09:59;;;;;;;2.17;1.67;;;;;;;6.49;80.62;98621.55;1730701;81;21294;-60
2020/12/25 11:12:26;;;;;;;2.13;1.40;;;;;;;6.53;80.49;98621.81;1733387;81;21852;-61
2020/12/25 11:14:53;;;;;;;2.17;1.83;;;;;;;6.56;80.16;98633.67;1736559;81;21196;-61
2020/12/25 11:17:20;;;;;;;2.40;2.20;;;;;;;6.57;80.01;98630.92;1736842;81;21186;-61
2020/12/25 11:19:48;;;;;;;3.67;2.37;;;;;;;6.58;79.81;98640.68;1733730;81;21229;-62
2020/12/25 11:22:15;;;;;;;3.83;1.60;;;;;;;6.55;79.85;98637.31;1752320;80;22228;-61
2020/12/25 11:24:43;;;;;;;4.63;2.03;;;;;;;6.55;79.83;98640.82;1752392;80;21193;-61
2020/12/25 11:27:11;;;;;;;1.67;1.57;;;;;;;6.57;79.88;98640.28;1750569;80;22012;-61
2020/12/25 11:29:38;;;;;;;2.73;1.67;;;;;;;6.62;79.85;98639.61;1754507;80;21119;-61
2020/12/25 11:32:06;;;;;;;3.07;1.73;;;;;;;6.67;79.73;98632.20;1749948;80;21519;-62
2020/12/25 11:34:33;;;;;;;3.43;1.63;;;;;;;6.70;79.60;98641.42;1755979;80;21197;-61
2020/12/25 11:37:00;;;;;;;2.60;2.40;;;;;;;6.69;79.41;98641.49;1751788;80;21222;-60
2020/12/25 11:39:28;;;;;;;5.67;2.50;;;;;;;6.68;79.17;98641.09;1724299;81;21183;-61
2020/12/25 11:41:56;;;;;;;4.47;3.53;;;;;;;6.63;79.02;98642.67;1751159;80;21106;-61
2020/12/25 11:44:23;;;;;;;3.47;2.10;;;;;;;6.61;79.00;98648.56;1755415;80;21110;-61